createdAt,value
2023-03-22T00:00:21.508Z,1008.81
2023-03-22T00:01:21.459Z,1008.79
2023-03-22T00:02:21.508Z,1008.78
2023-03-22T00:03:21.470Z,1008.74
2023-03-22T00:04:21.438Z,1008.78
2023-03-22T00:05:21.445Z,1008.83
2023-03-22T00:06:21.406Z,1008.80
2023-03-22T00:07:21.418Z,1008.78
2023-03-22T00:08:21.474Z,1008.83
2023-03-22T00:09:21.395Z,1008.76
2023-03-22T00:10:21.403Z,1008.76
2023-03-22T00:11:21.367Z,1008.73
2023-03-22T00:12:21.325Z,1008.77
2023-03-22T00:13:21.315Z,1008.80
2023-03-22T00:14:21.307Z,1008.73
2023-03-22T00:15:21.304Z,1008.72
2023-03-22T00:16:21.352Z,1008.73
2023-03-22T00:17:21.264Z,1008.71
2023-03-22T00:18:21.278Z,1008.72
2023-03-22T00:19:21.283Z,1008.72
2023-03-22T00:20:21.289Z,1008.73
2023-03-22T00:21:21.215Z,1008.68
2023-03-22T00:22:21.212Z,1008.66
2023-03-22T00:23:21.248Z,1008.65
2023-03-22T00:24:21.209Z,1008.60
2023-03-22T00:25:21.181Z,1008.61
2023-03-22T00:26:21.178Z,1008.56
2023-03-22T00:27:21.151Z,1008.64
2023-03-22T00:28:21.122Z,1008.55
2023-03-22T00:29:21.111Z,1008.56
2023-03-22T00:30:21.100Z,1008.53
2023-03-22T00:31:21.212Z,1008.48
2023-03-22T00:32:21.072Z,1008.49
2023-03-22T00:33:21.080Z,1008.50
2023-03-22T00:34:21.075Z,1008.47
2023-03-22T00:35:21.091Z,1008.44
2023-03-22T00:36:21.060Z,1008.45
2023-03-22T00:37:20.992Z,1008.39
2023-03-22T00:38:27.196Z,1008.43
2023-03-22T00:39:21.974Z,1008.42
2023-03-22T00:40:20.987Z,1008.41
2023-03-22T00:41:20.959Z,1008.42
2023-03-22T00:42:20.952Z,1008.42
2023-03-22T00:43:20.942Z,1008.39
2023-03-22T00:44:20.947Z,1008.39
2023-03-22T00:45:20.928Z,1008.34
2023-03-22T00:46:21.041Z,1008.34
2023-03-22T00:47:20.874Z,1008.36
2023-03-22T00:48:20.922Z,1008.30
2023-03-22T00:49:20.879Z,1008.28
2023-03-22T00:50:20.843Z,1008.32
2023-03-22T00:51:20.850Z,1008.26
2023-03-22T00:52:20.838Z,1008.24
2023-03-22T00:53:20.831Z,1008.22
2023-03-22T00:54:20.813Z,1008.18
2023-03-22T00:55:20.799Z,1008.20
2023-03-22T00:56:20.786Z,1008.20
2023-03-22T00:57:20.734Z,1008.18
2023-03-22T00:58:20.767Z,1008.13
2023-03-22T00:59:20.712Z,1008.14
2023-03-22T01:00:20.735Z,1008.15
2023-03-22T01:01:20.766Z,1008.13
2023-03-22T01:02:20.693Z,1008.07
2023-03-22T01:03:20.667Z,1008.13
2023-03-22T01:04:20.660Z,1008.16
2023-03-22T01:05:20.629Z,1008.09
2023-03-22T01:06:20.685Z,1008.06
2023-03-22T01:07:20.630Z,1008.06
2023-03-22T01:08:20.599Z,1008.08
2023-03-22T01:09:20.585Z,1008.10
2023-03-22T01:10:20.582Z,1008.03
2023-03-22T01:11:20.558Z,1008.00
2023-03-22T01:12:20.573Z,1008.07
2023-03-22T01:13:20.555Z,1008.02
2023-03-22T01:14:20.551Z,1008.06
2023-03-22T01:15:20.523Z,1008.06
2023-03-22T01:16:20.556Z,1008.09
2023-03-22T01:17:20.579Z,1008.04
2023-03-22T01:18:20.488Z,1008.06
2023-03-22T01:19:20.444Z,1008.01
2023-03-22T01:20:20.472Z,1008.02
2023-03-22T01:21:20.425Z,1007.98
2023-03-22T01:22:20.453Z,1008.06
2023-03-22T01:23:20.452Z,1007.99
2023-03-22T01:24:20.385Z,1007.94
2023-03-22T01:25:20.390Z,1007.98
2023-03-22T01:26:20.391Z,1007.99
2023-03-22T01:27:20.337Z,1007.96
2023-03-22T01:28:20.391Z,1007.97
2023-03-22T01:29:20.347Z,1007.95
2023-03-22T01:30:20.326Z,1007.95
2023-03-22T01:31:20.410Z,1007.87
2023-03-22T01:32:20.299Z,1007.89
2023-03-22T01:33:20.287Z,1007.91
2023-03-22T01:34:20.251Z,1007.90
2023-03-22T01:35:20.300Z,1007.92
2023-03-22T01:36:20.234Z,1007.93
2023-03-22T01:37:20.229Z,1007.82
2023-03-22T01:38:20.270Z,1007.84
2023-03-22T01:39:20.193Z,1007.88
2023-03-22T01:40:20.202Z,1007.88
2023-03-22T01:41:20.218Z,1007.83
2023-03-22T01:42:20.194Z,1007.80
2023-03-22T01:43:20.223Z,1007.83
2023-03-22T01:44:20.216Z,1007.76
2023-03-22T01:45:20.109Z,1007.76
2023-03-22T01:46:20.195Z,1007.76
2023-03-22T01:47:20.104Z,1007.74
2023-03-22T01:48:20.207Z,1007.77
2023-03-22T01:49:20.114Z,1007.80
2023-03-22T01:50:20.041Z,1007.75
2023-03-22T01:51:20.046Z,1007.72
2023-03-22T01:52:20.020Z,1007.72
2023-03-22T01:53:20.039Z,1007.73
2023-03-22T01:54:19.983Z,1007.66
2023-03-22T01:55:20.026Z,1007.67
2023-03-22T01:56:19.993Z,1007.68
2023-03-22T01:57:19.999Z,1007.66
2023-03-22T01:58:19.960Z,1007.65
2023-03-22T01:59:19.975Z,1007.64
2023-03-22T02:00:19.950Z,1007.66
2023-03-22T02:01:19.999Z,1007.65
2023-03-22T02:02:19.958Z,1007.63
2023-03-22T02:03:19.896Z,1007.64
2023-03-22T02:04:19.883Z,1007.62
2023-03-22T02:05:19.879Z,1007.53
2023-03-22T02:06:19.890Z,1007.58
2023-03-22T02:07:19.858Z,1007.59
2023-03-22T02:08:19.806Z,1007.58
2023-03-22T02:09:19.857Z,1007.60
2023-03-22T02:10:19.808Z,1007.54
2023-03-22T02:11:19.799Z,1007.60
2023-03-22T02:12:19.757Z,1007.47
2023-03-22T02:13:19.764Z,1007.50
2023-03-22T02:14:19.751Z,1007.43
2023-03-22T02:15:19.745Z,1007.48
2023-03-22T02:16:19.755Z,1007.43
2023-03-22T02:17:19.706Z,1007.45
2023-03-22T02:18:19.670Z,1007.47
2023-03-22T02:19:19.670Z,1007.38
2023-03-22T02:20:19.687Z,1007.34
2023-03-22T02:21:19.677Z,1007.42
2023-03-22T02:22:19.617Z,1007.35
2023-03-22T02:23:19.619Z,1007.34
2023-03-22T02:24:19.617Z,1007.28
2023-03-22T02:25:19.597Z,1007.33
2023-03-22T02:26:19.628Z,1007.28
2023-03-22T02:27:19.603Z,1007.38
2023-03-22T02:28:19.565Z,1007.36
2023-03-22T02:29:19.567Z,1007.28
2023-03-22T02:30:19.535Z,1007.30
2023-03-22T02:31:19.605Z,1007.29
2023-03-22T02:32:19.521Z,1007.24
2023-03-22T02:33:19.501Z,1007.31
2023-03-22T02:34:19.457Z,1007.24
2023-03-22T02:35:19.483Z,1007.30
2023-03-22T02:36:19.458Z,1007.29
2023-03-22T02:37:19.457Z,1007.24
2023-03-22T02:38:19.416Z,1007.24
2023-03-22T02:39:19.419Z,1007.31
2023-03-22T02:40:19.418Z,1007.24
2023-03-22T02:41:19.412Z,1007.30
2023-03-22T02:42:19.355Z,1007.26
2023-03-22T02:43:19.376Z,1007.27
2023-03-22T02:44:19.352Z,1007.25
2023-03-22T02:45:19.352Z,1007.20
2023-03-22T02:46:19.388Z,1007.23
2023-03-22T02:47:19.295Z,1007.17
2023-03-22T02:48:19.357Z,1007.16
2023-03-22T02:49:19.273Z,1007.16
2023-03-22T02:50:19.254Z,1007.09
2023-03-22T02:51:19.256Z,1007.11
2023-03-22T02:52:19.261Z,1007.14
2023-03-22T02:53:19.258Z,1007.13
2023-03-22T02:54:19.197Z,1007.06
2023-03-22T02:55:19.221Z,1007.05
2023-03-22T02:56:19.212Z,1007.05
2023-03-22T02:57:19.210Z,1006.99
2023-03-22T02:58:19.210Z,1007.03
2023-03-22T02:59:19.151Z,1007.03
2023-03-22T03:00:19.138Z,1006.94
2023-03-22T03:01:19.131Z,1006.94
2023-03-22T03:02:19.163Z,1006.93
2023-03-22T03:03:19.133Z,1006.91
2023-03-22T03:04:19.078Z,1006.91
2023-03-22T03:05:19.060Z,1006.96
2023-03-22T03:06:19.040Z,1006.92
2023-03-22T03:07:19.044Z,1006.98
2023-03-22T03:08:19.046Z,1006.98
2023-03-22T03:09:19.010Z,1006.94
2023-03-22T03:10:19.007Z,1006.86
2023-03-22T03:11:19.007Z,1006.85
2023-03-22T03:12:18.958Z,1006.91
2023-03-22T03:13:18.972Z,1006.88
2023-03-22T03:14:18.931Z,1006.82
2023-03-22T03:15:18.975Z,1006.87
2023-03-22T03:16:18.958Z,1006.89
2023-03-22T03:17:18.936Z,1006.93
2023-03-22T03:18:18.935Z,1006.87
2023-03-22T03:19:18.929Z,1006.90
2023-03-22T03:20:18.896Z,1006.88
2023-03-22T03:21:18.850Z,1006.88
2023-03-22T03:22:18.913Z,1006.90
2023-03-22T03:23:18.864Z,1006.88
2023-03-22T03:24:18.854Z,1006.93
2023-03-22T03:25:18.831Z,1006.93
2023-03-22T03:26:18.796Z,1006.89
2023-03-22T03:27:18.802Z,1006.88
2023-03-22T03:28:18.793Z,1006.94
2023-03-22T03:29:18.808Z,1006.90
2023-03-22T03:30:18.728Z,1006.94
2023-03-22T03:31:18.741Z,1006.92
2023-03-22T03:32:18.708Z,1006.92
2023-03-22T03:33:18.700Z,1006.89
2023-03-22T03:34:18.709Z,1006.94
2023-03-22T03:35:18.719Z,1006.84
2023-03-22T03:36:18.649Z,1006.79
2023-03-22T03:37:18.653Z,1006.79
2023-03-22T03:38:18.667Z,1006.74
2023-03-22T03:39:18.748Z,1006.78
2023-03-22T03:40:18.661Z,1006.78
2023-03-22T03:41:18.598Z,1006.78
2023-03-22T03:42:18.567Z,1006.70
2023-03-22T03:43:18.612Z,1006.75
2023-03-22T03:44:18.556Z,1006.68
2023-03-22T03:45:18.567Z,1006.77
2023-03-22T03:46:18.522Z,1006.77
2023-03-22T03:47:18.521Z,1006.75
2023-03-22T03:48:18.561Z,1006.72
2023-03-22T03:49:18.498Z,1006.72
2023-03-22T03:50:18.500Z,1006.74
2023-03-22T03:51:18.490Z,1006.80
2023-03-22T03:52:18.455Z,1006.75
2023-03-22T03:53:18.447Z,1006.83
2023-03-22T03:54:18.407Z,1006.83
2023-03-22T03:55:18.445Z,1006.83
2023-03-22T03:56:18.415Z,1006.84
2023-03-22T03:57:18.394Z,1006.80
2023-03-22T03:58:18.389Z,1006.83
2023-03-22T03:59:18.370Z,1006.83
2023-03-22T04:00:18.357Z,1006.90
2023-03-22T04:01:18.326Z,1006.87
2023-03-22T04:02:18.342Z,1006.90
2023-03-22T04:03:18.322Z,1006.85
2023-03-22T04:04:18.360Z,1006.86
2023-03-22T04:05:18.321Z,1006.83
2023-03-22T04:06:18.274Z,1006.84
2023-03-22T04:07:18.248Z,1006.85
2023-03-22T04:08:18.238Z,1006.84
2023-03-22T04:09:18.229Z,1006.85
2023-03-22T04:10:18.221Z,1006.90
2023-03-22T04:11:18.212Z,1006.87
2023-03-22T04:12:18.219Z,1006.93
2023-03-22T04:13:18.176Z,1006.97
2023-03-22T04:14:18.182Z,1006.90
2023-03-22T04:15:18.172Z,1006.93
2023-03-22T04:16:18.201Z,1006.96
2023-03-22T04:17:18.154Z,1006.96
2023-03-22T04:18:18.121Z,1006.97
2023-03-22T04:19:18.112Z,1006.93
2023-03-22T04:20:18.146Z,1006.95
2023-03-22T04:21:18.131Z,1006.94
2023-03-22T04:22:18.070Z,1006.97
2023-03-22T04:23:18.053Z,1006.95
2023-03-22T04:24:18.043Z,1006.91
2023-03-22T04:25:18.166Z,1006.92
2023-03-22T04:26:18.033Z,1006.92
2023-03-22T04:27:18.058Z,1006.89
2023-03-22T04:28:17.993Z,1006.84
2023-03-22T04:29:17.962Z,1006.86
2023-03-22T04:30:17.954Z,1006.85
2023-03-22T04:31:17.960Z,1006.87
2023-03-22T04:32:17.968Z,1006.84
2023-03-22T04:33:17.936Z,1006.87
2023-03-22T04:34:17.920Z,1006.88
2023-03-22T04:35:17.900Z,1006.85
2023-03-22T04:36:17.867Z,1006.89
2023-03-22T04:37:17.912Z,1006.82
2023-03-22T04:38:17.861Z,1006.84
2023-03-22T04:39:17.882Z,1006.84
2023-03-22T04:40:17.854Z,1006.78
2023-03-22T04:41:17.852Z,1006.80
2023-03-22T04:42:17.812Z,1006.77
2023-03-22T04:43:17.790Z,1006.72
2023-03-22T04:44:17.788Z,1006.75
2023-03-22T04:45:17.788Z,1006.65
2023-03-22T04:46:17.813Z,1006.65
2023-03-22T04:47:17.746Z,1006.64
2023-03-22T04:48:17.815Z,1006.65
2023-03-22T04:49:17.698Z,1006.60
2023-03-22T04:50:17.747Z,1006.63
2023-03-22T04:51:17.675Z,1006.54
2023-03-22T04:52:17.677Z,1006.56
2023-03-22T04:53:17.665Z,1006.60
2023-03-22T04:54:17.625Z,1006.54
2023-03-22T04:55:17.654Z,1006.55
2023-03-22T04:56:17.617Z,1006.54
2023-03-22T04:57:17.639Z,1006.52
2023-03-22T04:58:17.574Z,1006.51
2023-03-22T04:59:17.567Z,1006.55
2023-03-22T05:00:17.579Z,1006.61
2023-03-22T05:01:17.644Z,1006.54
2023-03-22T05:02:17.516Z,1006.56
2023-03-22T05:03:17.544Z,1006.68
2023-03-22T05:04:17.510Z,1006.58
2023-03-22T05:05:17.492Z,1006.67
2023-03-22T05:06:17.493Z,1006.71
2023-03-22T05:07:17.469Z,1006.69
2023-03-22T05:08:17.455Z,1006.72
2023-03-22T05:09:17.470Z,1006.71
2023-03-22T05:10:17.449Z,1006.67
2023-03-22T05:11:17.414Z,1006.65
2023-03-22T05:12:17.408Z,1006.68
2023-03-22T05:13:17.408Z,1006.66
2023-03-22T05:14:17.393Z,1006.66
2023-03-22T05:15:17.403Z,1006.61
2023-03-22T05:16:17.441Z,1006.61
2023-03-22T05:17:17.350Z,1006.63
2023-03-22T05:18:17.304Z,1006.57
2023-03-22T05:19:17.358Z,1006.59
2023-03-22T05:20:17.287Z,1006.60
2023-03-22T05:21:17.293Z,1006.60
2023-03-22T05:22:17.282Z,1006.58
2023-03-22T05:23:17.252Z,1006.56
2023-03-22T05:24:17.260Z,1006.58
2023-03-22T05:25:17.246Z,1006.57
2023-03-22T05:26:17.248Z,1006.59
2023-03-22T05:27:17.241Z,1006.64
2023-03-22T05:28:17.205Z,1006.54
2023-03-22T05:29:17.179Z,1006.59
2023-03-22T05:30:17.177Z,1006.62
2023-03-22T05:31:17.163Z,1006.65
2023-03-22T05:32:17.171Z,1006.59
2023-03-22T05:33:17.116Z,1006.62
2023-03-22T05:34:17.120Z,1006.63
2023-03-22T05:35:17.259Z,1006.60
2023-03-22T05:36:17.086Z,1006.64
2023-03-22T05:37:17.148Z,1006.58
2023-03-22T05:38:17.075Z,1006.55
2023-03-22T05:39:17.076Z,1006.58
2023-03-22T05:40:17.042Z,1006.61
2023-03-22T05:41:17.052Z,1006.65
2023-03-22T05:42:17.023Z,1006.64
2023-03-22T05:43:17.026Z,1006.68
2023-03-22T05:44:17.007Z,1006.67
2023-03-22T05:45:16.999Z,1006.64
2023-03-22T05:46:17.002Z,1006.73
2023-03-22T05:47:16.995Z,1006.63
2023-03-22T05:48:17.016Z,1006.71
2023-03-22T05:49:16.941Z,1006.62
2023-03-22T05:50:16.909Z,1006.66
2023-03-22T05:51:16.921Z,1006.69
2023-03-22T05:52:16.884Z,1006.69
2023-03-22T05:53:16.896Z,1006.70
2023-03-22T05:54:16.840Z,1006.72
2023-03-22T05:55:16.846Z,1006.70
2023-03-22T05:56:16.836Z,1006.73
2023-03-22T05:57:16.822Z,1006.67
2023-03-22T05:58:16.788Z,1006.69
2023-03-22T05:59:16.814Z,1006.72
2023-03-22T06:00:16.763Z,1006.69
2023-03-22T06:01:16.803Z,1006.69
2023-03-22T06:02:16.753Z,1006.64
2023-03-22T06:03:17.069Z,1006.68
2023-03-22T06:04:16.751Z,1006.66
2023-03-22T06:05:16.726Z,1006.71
2023-03-22T06:06:16.753Z,1006.68
2023-03-22T06:07:16.703Z,1006.70
2023-03-22T06:08:16.664Z,1006.73
2023-03-22T06:09:17.983Z,1006.67
2023-03-22T06:10:16.692Z,1006.67
2023-03-22T06:11:16.624Z,1006.66
2023-03-22T06:12:16.612Z,1006.70
2023-03-22T06:13:16.625Z,1006.73
2023-03-22T06:14:16.609Z,1006.68
2023-03-22T06:15:16.589Z,1006.65
2023-03-22T06:16:16.660Z,1006.63
2023-03-22T06:17:16.540Z,1006.62
2023-03-22T06:18:16.558Z,1006.65
2023-03-22T06:19:16.537Z,1006.66
2023-03-22T06:20:16.539Z,1006.60
2023-03-22T06:21:16.514Z,1006.63
2023-03-22T06:22:16.508Z,1006.62
2023-03-22T06:23:16.489Z,1006.59
2023-03-22T06:24:16.524Z,1006.59
2023-03-22T06:25:16.461Z,1006.64
2023-03-22T06:26:16.452Z,1006.65
2023-03-22T06:27:16.455Z,1006.63
2023-03-22T06:28:16.419Z,1006.67
2023-03-22T06:29:16.380Z,1006.70
2023-03-22T06:30:16.402Z,1006.72
2023-03-22T06:31:16.461Z,1006.70
2023-03-22T06:32:16.938Z,1006.74
2023-03-22T06:33:16.335Z,1006.76
2023-03-22T06:34:16.325Z,1006.70
2023-03-22T06:35:16.309Z,1006.72
2023-03-22T06:36:16.299Z,1006.76
2023-03-22T06:37:16.320Z,1006.80
2023-03-22T06:38:16.319Z,1006.74
2023-03-22T06:39:16.256Z,1006.74
2023-03-22T06:40:16.265Z,1006.70
2023-03-22T06:41:16.211Z,1006.75
2023-03-22T06:42:17.230Z,1006.76
2023-03-22T06:43:16.202Z,1006.75
2023-03-22T06:44:16.219Z,1006.75
2023-03-22T06:45:16.157Z,1006.72
2023-03-22T06:46:16.337Z,1006.77
2023-03-22T06:47:16.181Z,1006.69
2023-03-22T06:48:16.204Z,1006.78
2023-03-22T06:49:16.132Z,1006.84
2023-03-22T06:50:16.108Z,1006.75
2023-03-22T06:51:16.105Z,1006.79
2023-03-22T06:52:16.112Z,1006.85
2023-03-22T06:53:16.112Z,1006.74
2023-03-22T06:54:16.054Z,1006.76
2023-03-22T06:55:16.056Z,1006.82
2023-03-22T06:56:16.021Z,1006.78
2023-03-22T06:57:15.991Z,1006.74
2023-03-22T06:58:16.043Z,1006.79
2023-03-22T06:59:15.991Z,1006.77
2023-03-22T07:00:15.977Z,1006.70
2023-03-22T07:01:15.986Z,1006.69
2023-03-22T07:02:15.942Z,1006.69
2023-03-22T07:03:15.942Z,1006.67
2023-03-22T07:04:16.009Z,1006.67
2023-03-22T07:05:15.894Z,1006.66
2023-03-22T07:06:15.913Z,1006.61
2023-03-22T07:07:15.870Z,1006.63
2023-03-22T07:08:15.993Z,1006.65
2023-03-22T07:09:15.872Z,1006.64
2023-03-22T07:10:15.848Z,1006.68
2023-03-22T07:11:15.844Z,1006.66
2023-03-22T07:12:15.814Z,1006.63
2023-03-22T07:13:15.837Z,1006.66
2023-03-22T07:14:15.784Z,1006.65
2023-03-22T07:15:15.794Z,1006.63
2023-03-22T07:16:17.089Z,1006.65
2023-03-22T07:17:15.737Z,1006.68
2023-03-22T07:18:15.754Z,1006.62
2023-03-22T07:19:15.799Z,1006.60
2023-03-22T07:20:15.714Z,1006.58
2023-03-22T07:21:15.711Z,1006.56
2023-03-22T07:22:15.707Z,1006.58
2023-03-22T07:23:15.671Z,1006.57
2023-03-22T07:24:15.690Z,1006.51
2023-03-22T07:25:15.669Z,1006.51
2023-03-22T07:26:15.664Z,1006.45
2023-03-22T07:27:23.218Z,1006.50
2023-03-22T07:28:17.405Z,1006.48
2023-03-22T07:29:15.578Z,1006.54
2023-03-22T07:30:15.621Z,1006.52
2023-03-22T07:31:15.583Z,1006.49
2023-03-22T07:32:15.638Z,1006.44
2023-03-22T07:33:15.565Z,1006.43
2023-03-22T07:34:15.558Z,1006.42
2023-03-22T07:35:15.526Z,1006.42
2023-03-22T07:36:15.505Z,1006.44
2023-03-22T07:37:15.479Z,1006.45
2023-03-22T07:38:15.549Z,1006.39
2023-03-22T07:39:15.488Z,1006.38
2023-03-22T07:40:15.675Z,1006.40
2023-03-22T07:41:15.451Z,1006.44
2023-03-22T07:42:15.409Z,1006.37
2023-03-22T07:43:15.418Z,1006.37
2023-03-22T07:44:18.215Z,1006.36
2023-03-22T07:45:15.496Z,1006.27
2023-03-22T07:46:15.426Z,1006.30
2023-03-22T07:47:15.337Z,1006.26
2023-03-22T07:48:15.434Z,1006.34
2023-03-22T07:49:15.351Z,1006.35
2023-03-22T07:50:15.348Z,1006.36
2023-03-22T07:51:15.311Z,1006.32
2023-03-22T07:52:15.339Z,1006.35
2023-03-22T07:53:15.293Z,1006.29
2023-03-22T07:54:30.522Z,1006.27
2023-03-22T07:55:16.280Z,1006.28
2023-03-22T07:56:15.275Z,1006.31
2023-03-22T07:57:15.244Z,1006.31
2023-03-22T07:58:15.245Z,1006.31
2023-03-22T07:59:15.262Z,1006.28
2023-03-22T08:00:15.451Z,1006.33
2023-03-22T08:01:15.200Z,1006.35
2023-03-22T08:02:15.210Z,1006.40
2023-03-22T08:03:15.220Z,1006.33
2023-03-22T08:04:15.191Z,1006.36
2023-03-22T08:05:15.157Z,1006.34
2023-03-22T08:06:15.160Z,1006.31
2023-03-22T08:07:15.117Z,1006.37
2023-03-22T08:08:15.130Z,1006.35
2023-03-22T08:09:15.132Z,1006.25
2023-03-22T08:10:15.071Z,1006.34
2023-03-22T08:11:15.028Z,1006.28
2023-03-22T08:12:15.039Z,1006.31
2023-03-22T08:13:15.059Z,1006.29
2023-03-22T08:14:15.960Z,1006.31
2023-03-22T08:15:14.976Z,1006.33
2023-03-22T08:16:15.072Z,1006.32
2023-03-22T08:17:14.975Z,1006.32
2023-03-22T08:18:15.097Z,1006.28
2023-03-22T08:19:14.919Z,1006.33
2023-03-22T08:20:14.953Z,1006.27
2023-03-22T08:21:14.956Z,1006.24
2023-03-22T08:22:14.929Z,1006.25
2023-03-22T08:23:14.944Z,1006.26
2023-03-22T08:24:14.870Z,1006.19
2023-03-22T08:25:14.881Z,1006.24
2023-03-22T08:26:14.848Z,1006.21
2023-03-22T08:27:14.851Z,1006.20
2023-03-22T08:28:14.891Z,1006.24
2023-03-22T08:29:14.821Z,1006.18
2023-03-22T08:30:14.834Z,1006.30
2023-03-22T08:31:15.389Z,1006.28
2023-03-22T08:32:14.819Z,1006.26
2023-03-22T08:33:14.805Z,1006.23
2023-03-22T08:34:14.753Z,1006.24
2023-03-22T08:35:14.722Z,1006.25
2023-03-22T08:36:14.735Z,1006.31
2023-03-22T08:37:14.748Z,1006.29
2023-03-22T08:38:14.695Z,1006.29
2023-03-22T08:39:14.697Z,1006.34
2023-03-22T08:40:14.793Z,1006.28
2023-03-22T08:41:14.642Z,1006.25
2023-03-22T08:42:14.643Z,1006.40
2023-03-22T08:43:14.634Z,1006.39
2023-03-22T08:44:14.632Z,1006.41
2023-03-22T08:45:14.603Z,1006.38
2023-03-22T08:46:14.675Z,1006.38
2023-03-22T08:47:14.621Z,1006.38
2023-03-22T08:48:14.629Z,1006.38
2023-03-22T08:49:14.551Z,1006.33
2023-03-22T08:50:14.566Z,1006.43
2023-03-22T08:51:14.536Z,1006.42
2023-03-22T08:52:14.562Z,1006.42
2023-03-22T08:53:14.518Z,1006.42
2023-03-22T08:54:14.525Z,1006.45
2023-03-22T08:55:14.454Z,1006.36
2023-03-22T08:56:14.494Z,1006.31
2023-03-22T08:57:14.439Z,1006.34
2023-03-22T08:58:14.428Z,1006.41
2023-03-22T08:59:14.456Z,1006.27
2023-03-22T09:00:14.446Z,1006.44
2023-03-22T09:01:14.432Z,1006.43
2023-03-22T09:02:14.518Z,1006.32
2023-03-22T09:03:14.418Z,1006.33
2023-03-22T09:04:14.430Z,1006.39
2023-03-22T09:05:14.368Z,1006.37
2023-03-22T09:06:14.365Z,1006.42
2023-03-22T09:07:14.319Z,1006.31
2023-03-22T09:08:19.162Z,1006.31
2023-03-22T09:09:15.275Z,1006.29
2023-03-22T09:10:14.316Z,1006.38
2023-03-22T09:11:15.641Z,1006.35
2023-03-22T09:12:14.361Z,1006.31
2023-03-22T09:13:14.262Z,1006.35
2023-03-22T09:14:14.245Z,1006.40
2023-03-22T09:15:14.246Z,1006.35
2023-03-22T09:16:14.256Z,1006.30
2023-03-22T09:17:14.187Z,1006.33
2023-03-22T09:18:14.223Z,1006.35
2023-03-22T09:19:14.187Z,1006.35
2023-03-22T09:20:14.166Z,1006.37
2023-03-22T09:21:14.142Z,1006.36
2023-03-22T09:22:14.138Z,1006.30
2023-03-22T09:23:14.128Z,1006.28
2023-03-22T09:24:14.090Z,1006.34
2023-03-22T09:25:14.065Z,1006.34
2023-03-22T09:26:14.109Z,1006.28
2023-03-22T09:27:14.036Z,1006.28
2023-03-22T09:28:14.108Z,1006.32
2023-03-22T09:29:14.020Z,1006.29
2023-03-22T09:30:14.011Z,1006.29
2023-03-22T09:31:14.082Z,1006.30
2023-03-22T09:32:14.010Z,1006.27
2023-03-22T09:33:13.972Z,1006.18
2023-03-22T09:34:13.985Z,1006.28
2023-03-22T09:35:13.930Z,1006.26
2023-03-22T09:36:13.973Z,1006.19
2023-03-22T09:37:13.964Z,1006.25
2023-03-22T09:38:13.962Z,1006.30
2023-03-22T09:39:13.934Z,1006.17
2023-03-22T09:40:13.901Z,1006.22
2023-03-22T09:41:13.870Z,1006.23
2023-03-22T09:42:13.888Z,1006.25
2023-03-22T09:43:13.861Z,1006.22
2023-03-22T09:44:13.857Z,1006.27
2023-03-22T09:45:13.820Z,1006.14
2023-03-22T09:46:13.849Z,1006.13
2023-03-22T09:47:13.779Z,1006.12
2023-03-22T09:48:13.868Z,1006.06
2023-03-22T09:49:13.783Z,1006.02
2023-03-22T09:50:13.761Z,1006.06
2023-03-22T09:51:13.755Z,1006.08
2023-03-22T09:52:13.867Z,1006.07
2023-03-22T09:53:13.729Z,1006.13
2023-03-22T09:54:13.704Z,1006.12
2023-03-22T09:55:13.735Z,1006.16
2023-03-22T09:56:13.688Z,1006.17
2023-03-22T09:57:13.686Z,1006.19
2023-03-22T09:58:13.741Z,1006.16
2023-03-22T09:59:13.621Z,1006.21
2023-03-22T10:00:13.608Z,1006.21
2023-03-22T10:01:13.750Z,1006.20
2023-03-22T10:02:13.674Z,1006.13
2023-03-22T10:03:13.566Z,1006.21
2023-03-22T10:04:13.644Z,1006.23
2023-03-22T10:05:13.531Z,1006.24
2023-03-22T10:06:13.574Z,1006.21
2023-03-22T10:07:13.549Z,1006.15
2023-03-22T10:08:13.535Z,1006.21
2023-03-22T10:09:13.487Z,1006.09
2023-03-22T10:10:13.512Z,1006.11
2023-03-22T10:11:13.477Z,1006.08
2023-03-22T10:12:13.500Z,1006.10
2023-03-22T10:13:13.464Z,1006.08
2023-03-22T10:14:13.436Z,1006.14
2023-03-22T10:15:13.396Z,1006.10
2023-03-22T10:16:13.540Z,1006.09
2023-03-22T10:17:13.391Z,1006.07
2023-03-22T10:18:13.382Z,1006.11
2023-03-22T10:19:13.404Z,1006.11
2023-03-22T10:20:13.341Z,1006.11
2023-03-22T10:21:13.377Z,1006.10
2023-03-22T10:22:13.357Z,1006.09
2023-03-22T10:23:13.305Z,1006.04
2023-03-22T10:24:13.315Z,1006.01
2023-03-22T10:25:13.276Z,1006.12
2023-03-22T10:26:13.285Z,1006.15
2023-03-22T10:27:13.923Z,1006.14
2023-03-22T10:28:13.224Z,1006.14
2023-03-22T10:29:13.303Z,1006.09
2023-03-22T10:30:13.205Z,1005.95
2023-03-22T10:31:13.271Z,1006.05
2023-03-22T10:32:13.214Z,1005.99
2023-03-22T10:33:13.173Z,1005.98
2023-03-22T10:34:13.185Z,1006.08
2023-03-22T10:35:13.213Z,1006.05
2023-03-22T10:36:13.155Z,1005.98
2023-03-22T10:37:13.125Z,1005.98
2023-03-22T10:38:13.092Z,1005.97
2023-03-22T10:39:14.532Z,1005.97
2023-03-22T10:40:13.129Z,1005.95
2023-03-22T10:41:13.073Z,1005.97
2023-03-22T10:42:13.080Z,1005.90
2023-03-22T10:43:13.088Z,1005.97
2023-03-22T10:44:13.013Z,1005.97
2023-03-22T10:45:13.079Z,1006.00
2023-03-22T10:46:13.009Z,1005.95
2023-03-22T10:47:12.992Z,1005.96
2023-03-22T10:48:13.094Z,1005.99
2023-03-22T10:49:12.970Z,1006.00
2023-03-22T10:50:12.969Z,1005.96
2023-03-22T10:51:12.954Z,1005.90
2023-03-22T10:52:12.935Z,1005.96
2023-03-22T10:53:12.905Z,1006.02
2023-03-22T10:54:12.913Z,1006.02
2023-03-22T10:55:12.913Z,1006.01
2023-03-22T10:56:12.900Z,1006.05
2023-03-22T10:57:12.873Z,1006.06
2023-03-22T10:58:12.845Z,1006.07
2023-03-22T10:59:12.824Z,1006.06
2023-03-22T11:00:12.855Z,1006.11
2023-03-22T11:01:13.116Z,1006.10
2023-03-22T11:02:12.922Z,1006.11
2023-03-22T11:03:12.853Z,1006.09
2023-03-22T11:04:12.789Z,1006.03
2023-03-22T11:05:12.779Z,1006.01
2023-03-22T11:06:12.786Z,1006.01
2023-03-22T11:07:12.754Z,1005.93
2023-03-22T11:08:12.727Z,1005.98
2023-03-22T11:09:12.764Z,1005.99
2023-03-22T11:10:12.796Z,1005.98
2023-03-22T11:11:12.683Z,1005.97
2023-03-22T11:12:12.643Z,1005.97
2023-03-22T11:13:12.646Z,1006.01
2023-03-22T11:14:12.662Z,1006.02
2023-03-22T11:15:12.678Z,1005.96
2023-03-22T11:16:12.740Z,1005.96
2023-03-22T11:17:12.653Z,1005.98
2023-03-22T11:18:12.578Z,1005.98
2023-03-22T11:19:12.600Z,1005.96
2023-03-22T11:20:12.595Z,1005.99
2023-03-22T11:21:12.547Z,1005.97
2023-03-22T11:22:12.579Z,1005.97
2023-03-22T11:23:12.522Z,1006.02
2023-03-22T11:24:12.568Z,1006.00
2023-03-22T11:25:12.525Z,1005.97
2023-03-22T11:26:12.470Z,1005.97
2023-03-22T11:27:12.490Z,1006.00
2023-03-22T11:28:12.457Z,1005.96
2023-03-22T11:29:12.441Z,1006.01
2023-03-22T11:30:12.435Z,1005.99
2023-03-22T11:31:12.411Z,1006.01
2023-03-22T11:32:12.434Z,1006.01
2023-03-22T11:33:12.471Z,1005.99
2023-03-22T11:34:12.435Z,1006.09
2023-03-22T11:35:12.384Z,1006.06
2023-03-22T11:36:12.375Z,1006.04
2023-03-22T11:37:13.381Z,1006.06
2023-03-22T11:38:12.301Z,1006.04
2023-03-22T11:39:12.329Z,1006.05
2023-03-22T11:40:12.317Z,1005.99
2023-03-22T11:41:12.326Z,1005.97
2023-03-22T11:42:12.276Z,1005.96
2023-03-22T11:43:12.260Z,1006.03
2023-03-22T11:44:12.266Z,1005.98
2023-03-22T11:45:12.259Z,1005.99
2023-03-22T11:46:12.437Z,1005.96
2023-03-22T11:47:12.234Z,1005.93
2023-03-22T11:48:12.355Z,1006.02
2023-03-22T11:49:12.250Z,1006.02
2023-03-22T11:50:12.205Z,1006.04
2023-03-22T11:51:12.459Z,1005.95
2023-03-22T11:52:12.257Z,1005.91
2023-03-22T11:53:12.119Z,1005.95
2023-03-22T11:54:12.116Z,1005.90
2023-03-22T11:55:12.117Z,1005.90
2023-03-22T11:56:12.128Z,1005.86
2023-03-22T11:57:12.076Z,1005.78
2023-03-22T11:58:12.093Z,1005.86
2023-03-22T11:59:12.069Z,1005.88
2023-03-22T12:00:12.058Z,1005.86
2023-03-22T12:01:12.045Z,1005.88
2023-03-22T12:02:12.038Z,1005.78
2023-03-22T12:03:12.105Z,1005.83
2023-03-22T12:04:12.055Z,1005.75
2023-03-22T12:05:12.125Z,1005.80